createdAt,value
2022-07-27T00:02:02.240Z,15.45
2022-07-27T00:07:05.024Z,15.40
2022-07-27T00:12:07.648Z,15.35
2022-07-27T00:17:10.360Z,15.27
2022-07-27T00:22:12.981Z,15.24
2022-07-27T00:27:15.662Z,15.26
2022-07-27T00:32:18.330Z,14.87
2022-07-27T00:37:20.978Z,14.89
2022-07-27T00:42:28.443Z,14.85
2022-07-27T00:47:31.524Z,14.81
2022-07-27T00:52:34.875Z,14.77
2022-07-27T00:57:58.262Z,14.92
2022-07-27T01:03:02.474Z,14.90
2022-07-27T01:08:14.467Z,14.78
2022-07-27T01:13:17.803Z,14.79
2022-07-27T01:18:28.479Z,14.64
2022-07-27T01:23:34.754Z,14.52
2022-07-27T01:28:37.347Z,14.38
2022-07-27T01:33:39.837Z,14.17
2022-07-27T01:38:42.797Z,13.95
2022-07-27T01:43:46.476Z,13.94
2022-07-27T01:48:48.997Z,14.05
2022-07-27T01:53:51.649Z,13.93
2022-07-27T01:58:55.329Z,13.80
2022-07-27T02:03:57.969Z,13.75
2022-07-27T02:09:01.791Z,13.74
2022-07-27T02:14:04.343Z,13.69
2022-07-27T02:19:07.003Z,13.55
2022-07-27T02:24:11.494Z,13.54
2022-07-27T02:29:14.302Z,13.49
2022-07-27T02:34:17.985Z,13.47
2022-07-27T02:39:20.627Z,13.39
2022-07-27T02:44:23.265Z,13.30
2022-07-27T02:49:25.923Z,13.37
2022-07-27T02:54:29.549Z,13.32
2022-07-27T02:59:32.261Z,13.38
2022-07-27T03:04:35.142Z,13.37
2022-07-27T03:09:38.099Z,13.58
2022-07-27T03:14:40.555Z,13.72
2022-07-27T03:19:43.031Z,13.63
2022-07-27T03:24:46.750Z,13.71
2022-07-27T03:29:49.649Z,14.15
2022-07-27T03:34:52.434Z,14.56
2022-07-27T03:39:55.030Z,14.61
2022-07-27T03:44:58.392Z,16.02
2022-07-27T03:50:01.342Z,16.86
2022-07-27T03:55:04.460Z,17.45
2022-07-27T04:00:09.010Z,18.02
2022-07-27T04:05:12.188Z,18.45
2022-07-27T04:10:14.798Z,18.86
2022-07-27T04:15:19.346Z,19.07
2022-07-27T04:20:22.452Z,19.44
2022-07-27T04:25:25.256Z,19.71
2022-07-27T04:30:27.964Z,20.07
2022-07-27T04:35:30.971Z,20.49
2022-07-27T04:40:34.956Z,20.81
2022-07-27T04:45:37.940Z,20.87
2022-07-27T04:50:41.815Z,21.01
2022-07-27T04:55:46.589Z,20.76
2022-07-27T05:00:49.351Z,21.63
2022-07-27T05:05:52.260Z,21.41
2022-07-27T05:10:54.942Z,21.26
2022-07-27T05:15:57.816Z,21.27
2022-07-27T05:21:00.705Z,21.69
2022-07-27T05:26:03.597Z,21.51
2022-07-27T05:31:06.070Z,21.59
2022-07-27T05:36:08.808Z,21.45
2022-07-27T05:41:11.250Z,21.15
2022-07-27T05:46:14.493Z,21.19
2022-07-27T05:51:17.506Z,21.03
2022-07-27T05:56:20.830Z,20.34
2022-07-27T06:01:24.973Z,20.28
2022-07-27T06:06:46.559Z,20.17
2022-07-27T06:11:49.128Z,20.27
2022-07-27T06:16:51.921Z,21.12
2022-07-27T06:21:54.610Z,20.92
2022-07-27T06:26:57.545Z,20.60
2022-07-27T06:32:00.266Z,21.27
2022-07-27T06:37:04.378Z,21.19
2022-07-27T06:42:07.023Z,21.55
2022-07-27T06:47:09.607Z,22.15
2022-07-27T06:52:12.287Z,22.26
2022-07-27T06:57:15.810Z,22.18
2022-07-27T07:02:19.625Z,22.30
2022-07-27T07:07:22.453Z,22.05
2022-07-27T07:12:25.866Z,21.69
2022-07-27T07:17:29.180Z,21.60
2022-07-27T07:22:34.460Z,21.18
2022-07-27T07:27:37.111Z,21.32
2022-07-27T07:32:39.897Z,21.16
2022-07-27T07:37:42.567Z,21.02
2022-07-27T07:42:49.030Z,21.23
2022-07-27T07:47:52.167Z,21.48
2022-07-27T07:52:55.435Z,21.56
2022-07-27T07:58:00.080Z,21.08
2022-07-27T08:03:04.382Z,21.50
2022-07-27T08:08:06.999Z,21.63
2022-07-27T08:13:10.140Z,21.96
2022-07-27T08:18:12.702Z,21.62
2022-07-27T08:23:15.356Z,21.64
2022-07-27T08:28:18.028Z,22.09
2022-07-27T08:33:21.108Z,21.72
2022-07-27T08:38:24.562Z,21.54
2022-07-27T08:43:27.208Z,21.86
2022-07-27T08:48:31.911Z,21.44
2022-07-27T08:53:53.476Z,21.66
2022-07-27T08:58:57.761Z,22.20
2022-07-27T09:04:00.476Z,23.44
2022-07-27T09:09:03.230Z,22.81
2022-07-27T09:14:08.211Z,22.55
2022-07-27T09:19:11.888Z,22.43
2022-07-27T09:24:44.463Z,22.97
2022-07-27T09:29:39.530Z,22.90
2022-07-27T09:34:44.047Z,22.12
2022-07-27T09:39:47.039Z,22.69
2022-07-27T09:44:53.583Z,22.12
2022-07-27T09:50:20.702Z,21.75
2022-07-27T09:55:23.265Z,22.26
2022-07-27T10:00:27.319Z,22.01
2022-07-27T10:05:30.051Z,22.25
2022-07-27T10:10:33.222Z,22.79
2022-07-27T10:15:36.591Z,22.59
2022-07-27T10:20:47.517Z,22.65
2022-07-27T10:26:42.596Z,23.18
2022-07-27T10:31:54.169Z,23.69
2022-07-27T10:36:57.608Z,23.11
2022-07-27T10:42:19.951Z,23.29
2022-07-27T10:47:36.847Z,23.70
2022-07-27T10:53:09.352Z,23.84
2022-07-27T10:58:14.178Z,23.32
2022-07-27T11:03:27.268Z,23.50
2022-07-27T11:08:40.916Z,24.53
2022-07-27T11:13:58.212Z,23.81
2022-07-27T11:19:07.037Z,23.75
2022-07-27T11:24:15.189Z,24.38
2022-07-27T11:29:20.787Z,23.81
2022-07-27T11:34:32.014Z,23.98
2022-07-27T11:39:59.280Z,24.35
2022-07-27T11:44:58.309Z,24.88
2022-07-27T11:50:12.289Z,24.77
2022-07-27T11:55:15.343Z,25.16
2022-07-27T12:00:18.753Z,25.33
2022-07-27T12:05:21.444Z,24.18
2022-07-27T12:10:24.207Z,23.44
2022-07-27T12:15:45.287Z,24.21
2022-07-27T12:20:50.398Z,25.15
2022-07-27T12:25:54.739Z,25.59
2022-07-27T12:30:57.917Z,25.31
2022-07-27T12:36:01.463Z,25.50
2022-07-27T12:41:04.314Z,25.59
2022-07-27T12:46:15.884Z,24.69
2022-07-27T12:51:26.099Z,24.67
2022-07-27T12:56:29.276Z,24.63
2022-07-27T13:01:32.768Z,24.97
2022-07-27T13:06:35.862Z,25.14
2022-07-27T13:11:38.681Z,25.42
2022-07-27T13:16:41.627Z,25.82
2022-07-27T13:21:44.513Z,25.93
2022-07-27T13:26:49.741Z,25.94
2022-07-27T13:31:57.314Z,26.31
2022-07-27T13:37:00.323Z,25.48
2022-07-27T13:42:02.830Z,24.46
2022-07-27T13:47:06.998Z,24.47
2022-07-27T13:52:12.431Z,24.23
2022-07-27T13:57:15.157Z,24.11
2022-07-27T14:02:20.515Z,24.64
2022-07-27T14:07:28.403Z,25.04
2022-07-27T14:12:31.233Z,25.30
2022-07-27T14:17:34.005Z,25.18
2022-07-27T14:22:36.875Z,25.50
2022-07-27T14:27:39.763Z,25.09
2022-07-27T14:32:42.386Z,24.42
2022-07-27T14:37:44.925Z,24.34
2022-07-27T14:42:47.897Z,24.10
2022-07-27T14:47:51.358Z,24.74
2022-07-27T14:52:54.082Z,25.42
2022-07-27T14:57:56.677Z,24.93
2022-07-27T15:02:59.302Z,24.55
2022-07-27T15:08:02.022Z,23.94
2022-07-27T15:15:48.815Z,23.50
2022-07-27T15:20:51.673Z,23.93
2022-07-27T15:25:54.761Z,23.65
2022-07-27T15:30:57.358Z,23.78
2022-07-27T15:36:00.389Z,23.89
2022-07-27T15:41:03.099Z,23.35
2022-07-27T15:46:08.718Z,24.06
2022-07-27T15:51:13.052Z,23.76
2022-07-27T15:56:16.254Z,23.52
2022-07-27T16:01:21.043Z,23.23
2022-07-27T16:06:24.303Z,23.07
2022-07-27T16:11:27.589Z,23.24
2022-07-27T16:16:33.197Z,23.33
2022-07-27T16:21:55.133Z,22.78
2022-07-27T16:26:58.917Z,22.66
2022-07-27T16:32:03.277Z,22.88
2022-07-27T16:37:05.901Z,22.94
2022-07-27T16:42:08.689Z,22.19
2022-07-27T16:47:11.314Z,21.68
2022-07-27T16:52:14.066Z,21.65
2022-07-27T16:57:16.505Z,21.49
2022-07-27T17:02:19.252Z,21.74
2022-07-27T17:07:22.623Z,21.46
2022-07-27T17:12:38.109Z,21.17
2022-07-27T17:17:42.511Z,20.79
2022-07-27T17:22:45.325Z,20.41
2022-07-27T17:27:49.091Z,20.21
2022-07-27T17:32:54.604Z,20.18
2022-07-27T17:38:06.225Z,20.29
2022-07-27T17:43:09.593Z,20.04
2022-07-27T17:48:12.391Z,19.82
2022-07-27T17:53:15.056Z,19.51
2022-07-27T17:58:17.788Z,19.37
2022-07-27T18:03:22.018Z,19.34
2022-07-27T18:08:25.246Z,19.39
2022-07-27T18:13:39.424Z,19.25
2022-07-27T18:18:45.923Z,19.04
2022-07-27T18:23:48.715Z,19.09
2022-07-27T18:28:52.830Z,19.05
2022-07-27T18:33:56.156Z,19.03
2022-07-27T18:38:58.769Z,19.12
2022-07-27T18:44:01.353Z,19.13
2022-07-27T18:49:04.033Z,19.04
2022-07-27T18:54:07.390Z,18.90
2022-07-27T18:59:10.549Z,18.89
2022-07-27T19:04:15.740Z,18.82
2022-07-27T19:09:19.120Z,18.58
2022-07-27T19:14:23.278Z,18.33
2022-07-27T19:19:26.115Z,18.00
2022-07-27T19:24:29.267Z,17.89
2022-07-27T19:29:32.772Z,17.76
2022-07-27T19:34:36.329Z,17.52
2022-07-27T19:40:02.468Z,17.22
2022-07-27T19:45:02.513Z,17.11
2022-07-27T19:50:05.720Z,16.80
2022-07-27T19:55:09.169Z,16.63
2022-07-27T20:00:12.415Z,16.56
2022-07-27T20:05:15.203Z,16.31
2022-07-27T20:10:18.706Z,16.42
2022-07-27T20:15:22.464Z,16.26
2022-07-27T20:20:25.621Z,16.06
2022-07-27T20:25:29.039Z,15.88
2022-07-27T20:30:32.704Z,15.68
2022-07-27T20:35:37.710Z,15.66
2022-07-27T20:40:41.191Z,15.62
2022-07-27T20:45:44.533Z,15.69
2022-07-27T20:50:48.695Z,15.67
2022-07-27T20:55:52.358Z,15.78
2022-07-27T21:00:55.480Z,15.74
2022-07-27T21:05:58.435Z,15.66
2022-07-27T21:11:02.174Z,15.58
2022-07-27T21:16:05.543Z,15.70
2022-07-27T21:21:08.162Z,16.03
2022-07-27T21:26:11.573Z,16.33
2022-07-27T21:31:18.287Z,16.46
2022-07-27T21:36:21.092Z,16.61
2022-07-27T21:41:23.620Z,16.66
2022-07-27T21:46:26.731Z,16.49
2022-07-27T21:51:29.532Z,16.32
2022-07-27T21:56:41.770Z,16.14
2022-07-27T22:01:45.723Z,15.96
2022-07-27T22:06:48.342Z,15.86
2022-07-27T22:11:51.031Z,15.76
2022-07-27T22:16:53.622Z,15.52
2022-07-27T22:21:57.314Z,15.20
2022-07-27T22:26:59.840Z,15.30
2022-07-27T22:32:02.571Z,15.19
2022-07-27T22:37:05.979Z,15.07
2022-07-27T22:42:10.285Z,15.07
2022-07-27T22:47:12.770Z,14.95
2022-07-27T22:52:15.430Z,15.08
2022-07-27T22:57:18.311Z,15.18
2022-07-27T23:02:21.049Z,15.21
2022-07-27T23:07:24.008Z,15.40
2022-07-27T23:12:26.589Z,15.36
2022-07-27T23:17:29.448Z,15.53
2022-07-27T23:22:32.863Z,15.54
2022-07-27T23:27:37.166Z,15.77
2022-07-27T23:32:40.278Z,15.83
2022-07-27T23:37:44.574Z,16.02
2022-07-27T23:42:48.347Z,16.09
2022-07-27T23:47:51.266Z,16.04
2022-07-27T23:52:55.200Z,16.02
2022-07-27T23:57:57.685Z,16.17
